sensor_id;sensor_type;location;lat;lon;timestamp;temperature;humidity
10492;DHT22;5293;51.464;-2.566;2023-10-13T00:02:02;16.10;99.90
10492;DHT22;5293;51.464;-2.566;2023-10-13T00:04:32;16.20;99.90
10492;DHT22;5293;51.464;-2.566;2023-10-13T00:07:04;16.20;99.90
10492;DHT22;5293;51.464;-2.566;2023-10-13T00:09:30;16.30;99.90
10492;DHT22;5293;51.464;-2.566;2023-10-13T00:12:03;16.30;99.90
10492;DHT22;5293;51.464;-2.566;2023-10-13T00:14:29;16.40;99.90
10492;DHT22;5293;51.464;-2.566;2023-10-13T00:17:03;16.40;99.90
10492;DHT22;5293;51.464;-2.566;2023-10-13T00:19:37;16.50;99.90
10492;DHT22;5293;51.464;-2.566;2023-10-13T00:22:17;16.50;99.90
10492;DHT22;5293;51.464;-2.566;2023-10-13T00:24:48;16.60;99.90
10492;DHT22;5293;51.464;-2.566;2023-10-13T00:27:20;16.60;99.90
10492;DHT22;5293;51.464;-2.566;2023-10-13T00:30:00;16.60;99.90
10492;DHT22;5293;51.464;-2.566;2023-10-13T00:32:48;16.70;99.90
10492;DHT22;5293;51.464;-2.566;2023-10-13T00:35:20;16.70;99.90
10492;DHT22;5293;51.464;-2.566;2023-10-13T00:38:03;16.70;99.90
10492;DHT22;5293;51.464;-2.566;2023-10-13T00:40:43;16.60;99.90
10492;DHT22;5293;51.464;-2.566;2023-10-13T00:43:22;16.60;99.90
10492;DHT22;5293;51.464;-2.566;2023-10-13T00:45:49;16.50;99.90
10492;DHT22;5293;51.464;-2.566;2023-10-13T00:48:27;16.40;99.90
10492;DHT22;5293;51.464;-2.566;2023-10-13T00:51:02;16.40;99.90
10492;DHT22;5293;51.464;-2.566;2023-10-13T00:53:32;16.40;99.90
10492;DHT22;5293;51.464;-2.566;2023-10-13T00:56:05;16.40;99.90
10492;DHT22;5293;51.464;-2.566;2023-10-13T00:58:54;16.40;99.90
10492;DHT22;5293;51.464;-2.566;2023-10-13T01:01:23;16.30;99.90
10492;DHT22;5293;51.464;-2.566;2023-10-13T01:03:55;16.20;99.90
10492;DHT22;5293;51.464;-2.566;2023-10-13T01:06:22;16.30;99.90
10492;DHT22;5293;51.464;-2.566;2023-10-13T01:11:23;16.30;99.90
10492;DHT22;5293;51.464;-2.566;2023-10-13T01:13:49;16.30;99.90
10492;DHT22;5293;51.464;-2.566;2023-10-13T01:16:20;16.30;99.90
10492;DHT22;5293;51.464;-2.566;2023-10-13T01:18:52;16.30;99.90
10492;DHT22;5293;51.464;-2.566;2023-10-13T01:21:19;16.20;99.90
10492;DHT22;5293;51.464;-2.566;2023-10-13T01:23:53;16.20;99.90
10492;DHT22;5293;51.464;-2.566;2023-10-13T01:26:19;16.20;99.90
10492;DHT22;5293;51.464;-2.566;2023-10-13T01:28:56;16.20;99.90
10492;DHT22;5293;51.464;-2.566;2023-10-13T01:31:22;16.20;99.90
10492;DHT22;5293;51.464;-2.566;2023-10-13T01:33:55;16.20;99.90
10492;DHT22;5293;51.464;-2.566;2023-10-13T01:36:25;16.20;99.90
10492;DHT22;5293;51.464;-2.566;2023-10-13T01:38:51;16.30;99.90
10492;DHT22;5293;51.464;-2.566;2023-10-13T01:41:18;16.20;99.90
10492;DHT22;5293;51.464;-2.566;2023-10-13T01:43:44;16.20;99.90
10492;DHT22;5293;51.464;-2.566;2023-10-13T01:46:11;16.20;99.90
10492;DHT22;5293;51.464;-2.566;2023-10-13T01:48:41;16.20;99.90
10492;DHT22;5293;51.464;-2.566;2023-10-13T01:51:09;16.20;99.90
10492;DHT22;5293;51.464;-2.566;2023-10-13T01:53:38;16.20;99.90
10492;DHT22;5293;51.464;-2.566;2023-10-13T01:56:05;16.20;99.90
10492;DHT22;5293;51.464;-2.566;2023-10-13T01:58:38;16.20;99.90
10492;DHT22;5293;51.464;-2.566;2023-10-13T02:01:07;16.20;99.90
10492;DHT22;5293;51.464;-2.566;2023-10-13T02:03:33;16.20;99.90
10492;DHT22;5293;51.464;-2.566;2023-10-13T02:05:59;16.20;99.90
10492;DHT22;5293;51.464;-2.566;2023-10-13T02:08:30;16.30;99.90
10492;DHT22;5293;51.464;-2.566;2023-10-13T02:10:57;16.30;99.90
10492;DHT22;5293;51.464;-2.566;2023-10-13T02:13:24;16.20;99.90
10492;DHT22;5293;51.464;-2.566;2023-10-13T02:15:55;16.30;99.90
10492;DHT22;5293;51.464;-2.566;2023-10-13T02:18:28;16.30;99.90
10492;DHT22;5293;51.464;-2.566;2023-10-13T02:21:02;16.30;99.90
10492;DHT22;5293;51.464;-2.566;2023-10-13T02:23:30;16.30;99.90
10492;DHT22;5293;51.464;-2.566;2023-10-13T02:25:59;16.30;99.90
10492;DHT22;5293;51.464;-2.566;2023-10-13T02:28:36;16.30;99.90
10492;DHT22;5293;51.464;-2.566;2023-10-13T02:31:03;16.30;99.90
10492;DHT22;5293;51.464;-2.566;2023-10-13T02:33:29;16.40;99.90
10492;DHT22;5293;51.464;-2.566;2023-10-13T02:35:57;16.40;99.90
10492;DHT22;5293;51.464;-2.566;2023-10-13T02:38:23;16.50;99.90
10492;DHT22;5293;51.464;-2.566;2023-10-13T02:41:17;16.60;99.90
10492;DHT22;5293;51.464;-2.566;2023-10-13T02:43:53;16.70;99.90
10492;DHT22;5293;51.464;-2.566;2023-10-13T02:46:23;16.80;99.90
10492;DHT22;5293;51.464;-2.566;2023-10-13T02:48:49;16.80;99.90
10492;DHT22;5293;51.464;-2.566;2023-10-13T02:51:23;16.90;99.90
10492;DHT22;5293;51.464;-2.566;2023-10-13T02:53:57;16.90;99.90
10492;DHT22;5293;51.464;-2.566;2023-10-13T02:56:29;17.00;99.90
10492;DHT22;5293;51.464;-2.566;2023-10-13T02:58:54;17.10;99.90
10492;DHT22;5293;51.464;-2.566;2023-10-13T03:01:22;17.10;99.90
10492;DHT22;5293;51.464;-2.566;2023-10-13T03:03:54;17.10;99.90
10492;DHT22;5293;51.464;-2.566;2023-10-13T03:06:22;17.20;99.90
10492;DHT22;5293;51.464;-2.566;2023-10-13T03:08:51;17.20;99.90
10492;DHT22;5293;51.464;-2.566;2023-10-13T03:11:17;17.20;99.90
10492;DHT22;5293;51.464;-2.566;2023-10-13T03:13:50;17.30;99.90
10492;DHT22;5293;51.464;-2.566;2023-10-13T03:16:17;17.30;99.90
10492;DHT22;5293;51.464;-2.566;2023-10-13T03:18:48;17.30;99.90
10492;DHT22;5293;51.464;-2.566;2023-10-13T03:21:20;17.30;99.90
10492;DHT22;5293;51.464;-2.566;2023-10-13T03:23:55;17.40;99.90
10492;DHT22;5293;51.464;-2.566;2023-10-13T03:26:21;17.40;99.90
10492;DHT22;5293;51.464;-2.566;2023-10-13T03:28:47;17.40;99.90
10492;DHT22;5293;51.464;-2.566;2023-10-13T03:31:21;17.40;99.90
10492;DHT22;5293;51.464;-2.566;2023-10-13T03:33:53;17.40;99.90
10492;DHT22;5293;51.464;-2.566;2023-10-13T03:36:25;17.40;99.90
10492;DHT22;5293;51.464;-2.566;2023-10-13T03:39:09;17.40;99.90
10492;DHT22;5293;51.464;-2.566;2023-10-13T03:41:36;17.50;99.90
10492;DHT22;5293;51.464;-2.566;2023-10-13T03:44:05;17.50;99.90
10492;DHT22;5293;51.464;-2.566;2023-10-13T03:46:46;17.60;99.90
10492;DHT22;5293;51.464;-2.566;2023-10-13T03:49:16;17.60;99.90
10492;DHT22;5293;51.464;-2.566;2023-10-13T03:51:47;17.60;99.90
10492;DHT22;5293;51.464;-2.566;2023-10-13T03:54:14;17.60;99.90
10492;DHT22;5293;51.464;-2.566;2023-10-13T03:56:43;17.70;99.90
10492;DHT22;5293;51.464;-2.566;2023-10-13T03:59:12;17.70;99.90
10492;DHT22;5293;51.464;-2.566;2023-10-13T04:01:41;17.70;99.90
10492;DHT22;5293;51.464;-2.566;2023-10-13T04:04:10;17.70;99.90
10492;DHT22;5293;51.464;-2.566;2023-10-13T04:06:43;17.70;99.90
10492;DHT22;5293;51.464;-2.566;2023-10-13T04:09:19;17.70;99.90
10492;DHT22;5293;51.464;-2.566;2023-10-13T04:11:55;17.70;99.90
10492;DHT22;5293;51.464;-2.566;2023-10-13T04:14:37;17.70;99.90
10492;DHT22;5293;51.464;-2.566;2023-10-13T04:17:22;17.70;99.90
10492;DHT22;5293;51.464;-2.566;2023-10-13T04:19:58;17.70;99.90
10492;DHT22;5293;51.464;-2.566;2023-10-13T04:22:39;17.70;99.90
10492;DHT22;5293;51.464;-2.566;2023-10-13T04:25:27;17.70;99.90
10492;DHT22;5293;51.464;-2.566;2023-10-13T04:28:12;17.80;99.90
10492;DHT22;5293;51.464;-2.566;2023-10-13T04:30:46;17.80;99.90
10492;DHT22;5293;51.464;-2.566;2023-10-13T04:33:29;17.80;99.90
10492;DHT22;5293;51.464;-2.566;2023-10-13T04:36:26;17.90;99.90
10492;DHT22;5293;51.464;-2.566;2023-10-13T04:38:54;17.90;99.90
10492;DHT22;5293;51.464;-2.566;2023-10-13T04:41:27;17.90;99.90
10492;DHT22;5293;51.464;-2.566;2023-10-13T04:44:22;18.00;99.90
10492;DHT22;5293;51.464;-2.566;2023-10-13T04:47:06;18.00;99.90
10492;DHT22;5293;51.464;-2.566;2023-10-13T04:49:39;18.00;99.90
10492;DHT22;5293;51.464;-2.566;2023-10-13T04:52:11;18.00;99.90
10492;DHT22;5293;51.464;-2.566;2023-10-13T04:54:41;18.00;99.90
10492;DHT22;5293;51.464;-2.566;2023-10-13T04:57:23;18.00;99.90
10492;DHT22;5293;51.464;-2.566;2023-10-13T04:59:52;18.10;99.90
10492;DHT22;5293;51.464;-2.566;2023-10-13T05:02:38;18.10;99.90
10492;DHT22;5293;51.464;-2.566;2023-10-13T05:05:12;18.10;99.90
10492;DHT22;5293;51.464;-2.566;2023-10-13T05:07:44;18.10;99.90
10492;DHT22;5293;51.464;-2.566;2023-10-13T05:10:29;18.10;99.90
10492;DHT22;5293;51.464;-2.566;2023-10-13T05:13:17;18.10;99.90
10492;DHT22;5293;51.464;-2.566;2023-10-13T05:16:01;18.10;99.90
10492;DHT22;5293;51.464;-2.566;2023-10-13T05:18:45;18.10;99.90
10492;DHT22;5293;51.464;-2.566;2023-10-13T05:21:29;18.10;99.90
10492;DHT22;5293;51.464;-2.566;2023-10-13T05:24:14;18.10;99.90
10492;DHT22;5293;51.464;-2.566;2023-10-13T05:26:58;18.10;99.90
10492;DHT22;5293;51.464;-2.566;2023-10-13T05:29:45;18.10;99.90
10492;DHT22;5293;51.464;-2.566;2023-10-13T05:32:30;18.10;99.90
10492;DHT22;5293;51.464;-2.566;2023-10-13T05:35:14;18.20;99.90
10492;DHT22;5293;51.464;-2.566;2023-10-13T05:37:59;18.20;99.90
10492;DHT22;5293;51.464;-2.566;2023-10-13T05:40:56;18.20;99.90
10492;DHT22;5293;51.464;-2.566;2023-10-13T05:43:40;18.20;99.90
10492;DHT22;5293;51.464;-2.566;2023-10-13T05:46:25;18.30;99.90
10492;DHT22;5293;51.464;-2.566;2023-10-13T05:48:54;18.30;99.90
10492;DHT22;5293;51.464;-2.566;2023-10-13T05:51:26;18.30;99.90
10492;DHT22;5293;51.464;-2.566;2023-10-13T05:54:02;18.30;99.90
10492;DHT22;5293;51.464;-2.566;2023-10-13T05:56:45;18.30;99.90
10492;DHT22;5293;51.464;-2.566;2023-10-13T05:59:30;18.30;99.90
10492;DHT22;5293;51.464;-2.566;2023-10-13T06:02:16;18.20;99.90
10492;DHT22;5293;51.464;-2.566;2023-10-13T06:05:04;18.30;99.90
10492;DHT22;5293;51.464;-2.566;2023-10-13T06:07:49;18.30;99.90
10492;DHT22;5293;51.464;-2.566;2023-10-13T06:10:33;18.30;99.90
10492;DHT22;5293;51.464;-2.566;2023-10-13T06:13:17;18.30;99.90
10492;DHT22;5293;51.464;-2.566;2023-10-13T06:16:10;18.30;99.90
10492;DHT22;5293;51.464;-2.566;2023-10-13T06:18:54;18.30;99.90
10492;DHT22;5293;51.464;-2.566;2023-10-13T06:21:38;18.30;99.90
10492;DHT22;5293;51.464;-2.566;2023-10-13T06:24:22;18.30;99.90
10492;DHT22;5293;51.464;-2.566;2023-10-13T06:27:06;18.30;99.90
10492;DHT22;5293;51.464;-2.566;2023-10-13T06:29:50;18.30;99.90
10492;DHT22;5293;51.464;-2.566;2023-10-13T06:32:19;18.30;99.90
10492;DHT22;5293;51.464;-2.566;2023-10-13T06:34:45;18.30;99.90
10492;DHT22;5293;51.464;-2.566;2023-10-13T06:37:14;18.30;99.90
10492;DHT22;5293;51.464;-2.566;2023-10-13T06:39:57;18.30;99.90
10492;DHT22;5293;51.464;-2.566;2023-10-13T06:42:25;18.30;99.90
10492;DHT22;5293;51.464;-2.566;2023-10-13T06:44:54;18.30;99.90
10492;DHT22;5293;51.464;-2.566;2023-10-13T06:47:21;18.30;99.90
10492;DHT22;5293;51.464;-2.566;2023-10-13T06:49:48;18.30;99.90
10492;DHT22;5293;51.464;-2.566;2023-10-13T06:52:25;18.30;99.90
10492;DHT22;5293;51.464;-2.566;2023-10-13T06:54:54;18.30;99.90
10492;DHT22;5293;51.464;-2.566;2023-10-13T06:57:21;18.20;99.90
10492;DHT22;5293;51.464;-2.566;2023-10-13T06:59:47;18.20;99.90
10492;DHT22;5293;51.464;-2.566;2023-10-13T07:02:13;18.20;99.90
10492;DHT22;5293;51.464;-2.566;2023-10-13T07:04:48;18.20;99.90
10492;DHT22;5293;51.464;-2.566;2023-10-13T07:07:22;18.30;99.90
10492;DHT22;5293;51.464;-2.566;2023-10-13T07:09:49;18.30;99.90
10492;DHT22;5293;51.464;-2.566;2023-10-13T07:12:21;18.30;99.90
10492;DHT22;5293;51.464;-2.566;2023-10-13T07:14:53;18.30;99.90
10492;DHT22;5293;51.464;-2.566;2023-10-13T07:17:24;18.30;99.90
10492;DHT22;5293;51.464;-2.566;2023-10-13T07:19:52;18.30;99.90
10492;DHT22;5293;51.464;-2.566;2023-10-13T07:22:27;18.40;99.90
10492;DHT22;5293;51.464;-2.566;2023-10-13T07:24:53;18.40;99.90
10492;DHT22;5293;51.464;-2.566;2023-10-13T07:27:20;18.40;99.90
10492;DHT22;5293;51.464;-2.566;2023-10-13T07:29:54;18.40;99.90
10492;DHT22;5293;51.464;-2.566;2023-10-13T07:32:42;18.40;99.90
10492;DHT22;5293;51.464;-2.566;2023-10-13T07:35:20;18.50;99.90
10492;DHT22;5293;51.464;-2.566;2023-10-13T07:37:50;18.50;99.90
10492;DHT22;5293;51.464;-2.566;2023-10-13T07:40:18;18.50;99.90
10492;DHT22;5293;51.464;-2.566;2023-10-13T07:42:50;18.40;99.90
10492;DHT22;5293;51.464;-2.566;2023-10-13T07:45:16;18.50;99.90
10492;DHT22;5293;51.464;-2.566;2023-10-13T07:47:50;18.50;99.90
10492;DHT22;5293;51.464;-2.566;2023-10-13T07:50:16;18.50;99.90
10492;DHT22;5293;51.464;-2.566;2023-10-13T07:52:50;18.70;99.90
10492;DHT22;5293;51.464;-2.566;2023-10-13T07:55:33;18.70;99.90
10492;DHT22;5293;51.464;-2.566;2023-10-13T07:57:59;18.70;99.90
10492;DHT22;5293;51.464;-2.566;2023-10-13T08:00:26;18.70;99.90
10492;DHT22;5293;51.464;-2.566;2023-10-13T08:03:13;18.70;99.90
10492;DHT22;5293;51.464;-2.566;2023-10-13T08:05:42;18.70;99.90
10492;DHT22;5293;51.464;-2.566;2023-10-13T08:08:33;18.70;99.90
10492;DHT22;5293;51.464;-2.566;2023-10-13T08:11:15;18.70;99.90
10492;DHT22;5293;51.464;-2.566;2023-10-13T08:13:50;18.70;99.90
10492;DHT22;5293;51.464;-2.566;2023-10-13T08:16:30;18.70;99.90
10492;DHT22;5293;51.464;-2.566;2023-10-13T08:19:15;18.80;99.90
10492;DHT22;5293;51.464;-2.566;2023-10-13T08:21:46;18.80;99.90
10492;DHT22;5293;51.464;-2.566;2023-10-13T08:24:18;18.80;99.90
10492;DHT22;5293;51.464;-2.566;2023-10-13T08:27:07;18.80;99.90
10492;DHT22;5293;51.464;-2.566;2023-10-13T08:29:51;18.70;99.90
10492;DHT22;5293;51.464;-2.566;2023-10-13T08:32:24;18.70;99.90
10492;DHT22;5293;51.464;-2.566;2023-10-13T08:34:53;18.70;99.90
10492;DHT22;5293;51.464;-2.566;2023-10-13T08:37:20;18.70;99.90
10492;DHT22;5293;51.464;-2.566;2023-10-13T08:39:50;18.70;99.90
10492;DHT22;5293;51.464;-2.566;2023-10-13T08:42:38;18.60;99.90
10492;DHT22;5293;51.464;-2.566;2023-10-13T08:45:14;18.60;99.90
10492;DHT22;5293;51.464;-2.566;2023-10-13T08:47:56;18.50;99.90
10492;DHT22;5293;51.464;-2.566;2023-10-13T08:50:44;18.50;99.90
10492;DHT22;5293;51.464;-2.566;2023-10-13T08:56:01;18.60;99.90
10492;DHT22;5293;51.464;-2.566;2023-10-13T08:58:33;18.60;99.90
10492;DHT22;5293;51.464;-2.566;2023-10-13T09:01:28;18.70;99.90
10492;DHT22;5293;51.464;-2.566;2023-10-13T09:04:14;18.80;99.90
10492;DHT22;5293;51.464;-2.566;2023-10-13T09:06:46;18.80;99.90
10492;DHT22;5293;51.464;-2.566;2023-10-13T09:09:13;18.90;99.90
10492;DHT22;5293;51.464;-2.566;2023-10-13T09:11:58;18.90;99.90
10492;DHT22;5293;51.464;-2.566;2023-10-13T09:14:36;18.90;99.90
10492;DHT22;5293;51.464;-2.566;2023-10-13T09:17:13;18.90;99.90
10492;DHT22;5293;51.464;-2.566;2023-10-13T09:19:49;18.90;99.90
10492;DHT22;5293;51.464;-2.566;2023-10-13T09:22:26;18.90;99.90
10492;DHT22;5293;51.464;-2.566;2023-10-13T09:25:01;18.90;99.90
10492;DHT22;5293;51.464;-2.566;2023-10-13T09:27:33;18.90;99.90
10492;DHT22;5293;51.464;-2.566;2023-10-13T09:30:03;19.00;99.90
10492;DHT22;5293;51.464;-2.566;2023-10-13T09:33:04;19.00;99.90
10492;DHT22;5293;51.464;-2.566;2023-10-13T09:35:45;19.10;99.90
10492;DHT22;5293;51.464;-2.566;2023-10-13T09:38:17;19.10;99.90
10492;DHT22;5293;51.464;-2.566;2023-10-13T09:40:44;19.10;99.90
10492;DHT22;5293;51.464;-2.566;2023-10-13T09:43:19;19.10;99.90
10492;DHT22;5293;51.464;-2.566;2023-10-13T09:45:47;19.30;99.90
10492;DHT22;5293;51.464;-2.566;2023-10-13T09:48:36;19.20;99.90
10492;DHT22;5293;51.464;-2.566;2023-10-13T09:51:11;19.30;99.90
10492;DHT22;5293;51.464;-2.566;2023-10-13T09:53:38;19.30;99.90
10492;DHT22;5293;51.464;-2.566;2023-10-13T09:56:18;19.30;99.90
10492;DHT22;5293;51.464;-2.566;2023-10-13T09:59:21;19.40;99.90
10492;DHT22;5293;51.464;-2.566;2023-10-13T10:01:51;19.60;99.90
10492;DHT22;5293;51.464;-2.566;2023-10-13T10:04:24;19.70;99.90
10492;DHT22;5293;51.464;-2.566;2023-10-13T10:06:57;19.90;99.90
10492;DHT22;5293;51.464;-2.566;2023-10-13T10:09:33;20.00;99.90
10492;DHT22;5293;51.464;-2.566;2023-10-13T10:12:19;20.10;99.90
10492;DHT22;5293;51.464;-2.566;2023-10-13T10:17:22;20.00;99.90
10492;DHT22;5293;51.464;-2.566;2023-10-13T10:19:52;20.10;99.90
10492;DHT22;5293;51.464;-2.566;2023-10-13T10:22:32;20.30;99.90
10492;DHT22;5293;51.464;-2.566;2023-10-13T10:25:09;20.20;99.90
10492;DHT22;5293;51.464;-2.566;2023-10-13T10:28:01;20.30;99.90
10492;DHT22;5293;51.464;-2.566;2023-10-13T10:30:31;20.20;99.90
10492;DHT22;5293;51.464;-2.566;2023-10-13T10:32:59;20.20;99.90
10492;DHT22;5293;51.464;-2.566;2023-10-13T10:35:27;20.20;99.90
10492;DHT22;5293;51.464;-2.566;2023-10-13T10:40:57;19.90;99.90
10492;DHT22;5293;51.464;-2.566;2023-10-13T10:43:45;19.90;99.90
10492;DHT22;5293;51.464;-2.566;2023-10-13T10:46:15;20.10;99.90
10492;DHT22;5293;51.464;-2.566;2023-10-13T10:48:46;20.10;99.90
10492;DHT22;5293;51.464;-2.566;2023-10-13T10:51:14;20.10;99.90
10492;DHT22;5293;51.464;-2.566;2023-10-13T10:53:40;20.10;99.90
10492;DHT22;5293;51.464;-2.566;2023-10-13T10:56:13;20.00;99.90
10492;DHT22;5293;51.464;-2.566;2023-10-13T10:58:49;20.00;99.90
10492;DHT22;5293;51.464;-2.566;2023-10-13T11:01:21;19.80;99.90
10492;DHT22;5293;51.464;-2.566;2023-10-13T11:04:13;19.80;99.90
10492;DHT22;5293;51.464;-2.566;2023-10-13T11:06:49;19.80;99.90
10492;DHT22;5293;51.464;-2.566;2023-10-13T11:11:55;19.80;99.90
10492;DHT22;5293;51.464;-2.566;2023-10-13T11:14:25;19.90;99.90
10492;DHT22;5293;51.464;-2.566;2023-10-13T11:16:55;19.90;99.90
10492;DHT22;5293;51.464;-2.566;2023-10-13T11:19:39;19.90;99.90
10492;DHT22;5293;51.464;-2.566;2023-10-13T11:24:55;20.00;99.90
10492;DHT22;5293;51.464;-2.566;2023-10-13T11:27:29;20.00;99.90
10492;DHT22;5293;51.464;-2.566;2023-10-13T11:30:13;19.90;99.90
10492;DHT22;5293;51.464;-2.566;2023-10-13T11:32:43;20.00;99.90
10492;DHT22;5293;51.464;-2.566;2023-10-13T11:35:09;19.90;99.90
10492;DHT22;5293;51.464;-2.566;2023-10-13T11:37:49;19.90;99.90
10492;DHT22;5293;51.464;-2.566;2023-10-13T11:40:39;19.90;99.90
10492;DHT22;5293;51.464;-2.566;2023-10-13T11:43:23;19.90;99.90
10492;DHT22;5293;51.464;-2.566;2023-10-13T11:45:50;19.80;99.90
10492;DHT22;5293;51.464;-2.566;2023-10-13T11:48:39;19.50;99.90
10492;DHT22;5293;51.464;-2.566;2023-10-13T11:51:11;19.50;99.90
10492;DHT22;5293;51.464;-2.566;2023-10-13T11:53:49;19.50;99.90
10492;DHT22;5293;51.464;-2.566;2023-10-13T11:56:19;19.60;99.90
10492;DHT22;5293;51.464;-2.566;2023-10-13T11:58:46;19.50;99.90
10492;DHT22;5293;51.464;-2.566;2023-10-13T12:01:13;19.60;99.90
10492;DHT22;5293;51.464;-2.566;2023-10-13T12:03:43;19.60;99.90
10492;DHT22;5293;51.464;-2.566;2023-10-13T12:06:27;19.60;99.90
10492;DHT22;5293;51.464;-2.566;2023-10-13T12:09:10;19.70;99.90
10492;DHT22;5293;51.464;-2.566;2023-10-13T12:11:42;19.60;99.90
10492;DHT22;5293;51.464;-2.566;2023-10-13T12:14:11;19.70;99.90
10492;DHT22;5293;51.464;-2.566;2023-10-13T12:16:45;19.90;99.90
10492;DHT22;5293;51.464;-2.566;2023-10-13T12:19:24;19.90;99.90
10492;DHT22;5293;51.464;-2.566;2023-10-13T12:21:50;19.90;99.90
10492;DHT22;5293;51.464;-2.566;2023-10-13T12:24:20;20.10;99.90
10492;DHT22;5293;51.464;-2.566;2023-10-13T12:27:07;20.10;99.90
10492;DHT22;5293;51.464;-2.566;2023-10-13T12:29:49;20.00;99.90
10492;DHT22;5293;51.464;-2.566;2023-10-13T12:32:15;20.10;99.90
10492;DHT22;5293;51.464;-2.566;2023-10-13T12:34:46;20.10;99.90
10492;DHT22;5293;51.464;-2.566;2023-10-13T12:37:32;20.10;99.90
10492;DHT22;5293;51.464;-2.566;2023-10-13T12:40:09;20.10;99.90
10492;DHT22;5293;51.464;-2.566;2023-10-13T12:42:53;19.80;99.90
10492;DHT22;5293;51.464;-2.566;2023-10-13T12:45:45;19.80;99.90
10492;DHT22;5293;51.464;-2.566;2023-10-13T12:48:31;19.70;99.90
10492;DHT22;5293;51.464;-2.566;2023-10-13T12:51:15;19.60;99.90
10492;DHT22;5293;51.464;-2.566;2023-10-13T12:54:06;19.60;99.90
10492;DHT22;5293;51.464;-2.566;2023-10-13T12:56:46;19.70;99.90
10492;DHT22;5293;51.464;-2.566;2023-10-13T12:59:11;19.70;99.90
10492;DHT22;5293;51.464;-2.566;2023-10-13T13:01:40;19.60;99.90
10492;DHT22;5293;51.464;-2.566;2023-10-13T13:04:12;19.60;99.90
10492;DHT22;5293;51.464;-2.566;2023-10-13T13:06:46;19.60;99.90
10492;DHT22;5293;51.464;-2.566;2023-10-13T13:09:12;19.60;99.90
10492;DHT22;5293;51.464;-2.566;2023-10-13T13:11:38;19.70;99.90
10492;DHT22;5293;51.464;-2.566;2023-10-13T13:14:08;19.80;99.90
10492;DHT22;5293;51.464;-2.566;2023-10-13T13:16:35;19.90;99.90
10492;DHT22;5293;51.464;-2.566;2023-10-13T13:19:01;19.80;99.90
10492;DHT22;5293;51.464;-2.566;2023-10-13T13:21:38;19.60;99.90
10492;DHT22;5293;51.464;-2.566;2023-10-13T13:24:04;19.50;99.90
10492;DHT22;5293;51.464;-2.566;2023-10-13T13:26:36;19.50;99.90
10492;DHT22;5293;51.464;-2.566;2023-10-13T13:29:06;19.50;99.90
10492;DHT22;5293;51.464;-2.566;2023-10-13T13:31:35;19.20;99.90
10492;DHT22;5293;51.464;-2.566;2023-10-13T13:34:11;19.00;99.90
10492;DHT22;5293;51.464;-2.566;2023-10-13T13:36:40;18.70;99.90
10492;DHT22;5293;51.464;-2.566;2023-10-13T13:39:11;18.50;99.90
10492;DHT22;5293;51.464;-2.566;2023-10-13T13:41:36;18.50;99.90
10492;DHT22;5293;51.464;-2.566;2023-10-13T13:44:03;18.50;99.90
10492;DHT22;5293;51.464;-2.566;2023-10-13T13:46:41;18.40;99.90
10492;DHT22;5293;51.464;-2.566;2023-10-13T13:49:07;18.40;99.90
10492;DHT22;5293;51.464;-2.566;2023-10-13T13:51:43;18.40;99.90
10492;DHT22;5293;51.464;-2.566;2023-10-13T13:54:09;18.50;99.90
10492;DHT22;5293;51.464;-2.566;2023-10-13T13:56:35;18.50;99.90
10492;DHT22;5293;51.464;-2.566;2023-10-13T13:59:04;18.50;99.90
10492;DHT22;5293;51.464;-2.566;2023-10-13T14:01:34;18.50;99.90
10492;DHT22;5293;51.464;-2.566;2023-10-13T14:04:03;18.30;99.90
10492;DHT22;5293;51.464;-2.566;2023-10-13T14:06:32;18.30;99.90
10492;DHT22;5293;51.464;-2.566;2023-10-13T14:09:00;18.30;99.90
10492;DHT22;5293;51.464;-2.566;2023-10-13T14:11:30;18.10;99.90
10492;DHT22;5293;51.464;-2.566;2023-10-13T14:14:05;17.90;99.90
10492;DHT22;5293;51.464;-2.566;2023-10-13T14:16:38;17.80;99.90
10492;DHT22;5293;51.464;-2.566;2023-10-13T14:19:10;17.80;99.90
10492;DHT22;5293;51.464;-2.566;2023-10-13T14:21:36;17.80;99.90
10492;DHT22;5293;51.464;-2.566;2023-10-13T14:24:02;17.90;99.90
10492;DHT22;5293;51.464;-2.566;2023-10-13T14:26:28;17.80;99.90
10492;DHT22;5293;51.464;-2.566;2023-10-13T14:28:55;17.80;99.90
10492;DHT22;5293;51.464;-2.566;2023-10-13T14:31:40;17.80;99.90
10492;DHT22;5293;51.464;-2.566;2023-10-13T14:34:06;17.80;99.90
10492;DHT22;5293;51.464;-2.566;2023-10-13T14:36:32;17.80;99.90
10492;DHT22;5293;51.464;-2.566;2023-10-13T14:39:02;17.80;99.90
10492;DHT22;5293;51.464;-2.566;2023-10-13T14:41:28;17.70;99.90
10492;DHT22;5293;51.464;-2.566;2023-10-13T14:43:55;17.60;99.90
10492;DHT22;5293;51.464;-2.566;2023-10-13T14:46:30;17.50;99.90
10492;DHT22;5293;51.464;-2.566;2023-10-13T14:48:56;17.50;99.90
10492;DHT22;5293;51.464;-2.566;2023-10-13T14:51:21;17.50;99.90
10492;DHT22;5293;51.464;-2.566;2023-10-13T14:53:48;17.50;99.90
10492;DHT22;5293;51.464;-2.566;2023-10-13T14:56:16;17.50;99.90
10492;DHT22;5293;51.464;-2.566;2023-10-13T14:58:43;17.40;99.90
10492;DHT22;5293;51.464;-2.566;2023-10-13T15:01:15;17.40;99.90
10492;DHT22;5293;51.464;-2.566;2023-10-13T15:03:45;17.40;99.90
10492;DHT22;5293;51.464;-2.566;2023-10-13T15:06:18;17.40;99.90
10492;DHT22;5293;51.464;-2.566;2023-10-13T15:08:47;17.40;99.90
10492;DHT22;5293;51.464;-2.566;2023-10-13T15:11:13;17.40;99.90
10492;DHT22;5293;51.464;-2.566;2023-10-13T15:13:42;17.30;99.90
10492;DHT22;5293;51.464;-2.566;2023-10-13T15:16:22;17.30;99.90
10492;DHT22;5293;51.464;-2.566;2023-10-13T15:18:49;17.30;99.90
10492;DHT22;5293;51.464;-2.566;2023-10-13T15:21:28;17.20;99.90
10492;DHT22;5293;51.464;-2.566;2023-10-13T15:24:00;17.10;99.90
10492;DHT22;5293;51.464;-2.566;2023-10-13T15:26:32;17.10;99.90
10492;DHT22;5293;51.464;-2.566;2023-10-13T15:29:03;17.10;99.90
10492;DHT22;5293;51.464;-2.566;2023-10-13T15:31:34;17.10;99.90
10492;DHT22;5293;51.464;-2.566;2023-10-13T15:34:04;17.10;99.90
10492;DHT22;5293;51.464;-2.566;2023-10-13T15:36:41;16.90;99.90
10492;DHT22;5293;51.464;-2.566;2023-10-13T15:39:09;16.40;99.90
10492;DHT22;5293;51.464;-2.566;2023-10-13T15:41:36;15.90;99.90
10492;DHT22;5293;51.464;-2.566;2023-10-13T15:44:05;15.60;99.90
10492;DHT22;5293;51.464;-2.566;2023-10-13T15:46:35;15.50;99.90
10492;DHT22;5293;51.464;-2.566;2023-10-13T15:49:01;15.30;99.90
10492;DHT22;5293;51.464;-2.566;2023-10-13T15:51:28;15.20;99.90
10492;DHT22;5293;51.464;-2.566;2023-10-13T15:53:55;15.10;99.90
10492;DHT22;5293;51.464;-2.566;2023-10-13T15:56:21;15.00;99.90
10492;DHT22;5293;51.464;-2.566;2023-10-13T15:58:47;15.00;99.90
10492;DHT22;5293;51.464;-2.566;2023-10-13T16:01:14;14.90;99.90
10492;DHT22;5293;51.464;-2.566;2023-10-13T16:03:43;14.90;99.90
10492;DHT22;5293;51.464;-2.566;2023-10-13T16:06:10;14.90;99.90
10492;DHT22;5293;51.464;-2.566;2023-10-13T16:08:37;14.90;99.90
10492;DHT22;5293;51.464;-2.566;2023-10-13T16:11:06;14.80;99.90
10492;DHT22;5293;51.464;-2.566;2023-10-13T16:13:34;14.70;99.90
10492;DHT22;5293;51.464;-2.566;2023-10-13T16:16:04;14.70;99.90
10492;DHT22;5293;51.464;-2.566;2023-10-13T16:18:30;14.80;99.90
10492;DHT22;5293;51.464;-2.566;2023-10-13T16:21:01;14.80;99.90
10492;DHT22;5293;51.464;-2.566;2023-10-13T16:23:31;14.80;99.90
10492;DHT22;5293;51.464;-2.566;2023-10-13T16:25:56;14.60;99.90
10492;DHT22;5293;51.464;-2.566;2023-10-13T16:28:25;14.40;99.90